sensor_id;sensor_type;location;lat;lon;timestamp;pressure;altitude;pressure_sealevel;temperature;humidity
16194;BME280;8204;53.582;10.080;2023-01-28T00:01:39;102605.25;;;5.00;100.00
16194;BME280;8204;53.582;10.080;2023-01-28T00:04:08;102604.47;;;4.98;100.00
16194;BME280;8204;53.582;10.080;2023-01-28T00:06:37;102599.28;;;4.98;100.00
16194;BME280;8204;53.582;10.080;2023-01-28T00:09:06;102603.56;;;4.99;100.00
16194;BME280;8204;53.582;10.080;2023-01-28T00:11:38;102599.19;;;4.99;100.00
16194;BME280;8204;53.582;10.080;2023-01-28T00:14:07;102594.94;;;4.98;100.00
16194;BME280;8204;53.582;10.080;2023-01-28T00:16:35;102602.78;;;4.97;100.00
16194;BME280;8204;53.582;10.080;2023-01-28T00:19:04;102604.63;;;4.95;100.00
16194;BME280;8204;53.582;10.080;2023-01-28T00:21:33;102605.63;;;4.92;100.00
16194;BME280;8204;53.582;10.080;2023-01-28T00:24:02;102594.41;;;4.92;100.00
16194;BME280;8204;53.582;10.080;2023-01-28T00:26:31;102609.06;;;4.93;100.00
16194;BME280;8204;53.582;10.080;2023-01-28T00:29:03;102615.25;;;4.90;100.00
16194;BME280;8204;53.582;10.080;2023-01-28T00:31:32;102609.06;;;4.93;100.00
16194;BME280;8204;53.582;10.080;2023-01-28T00:34:02;102610.06;;;4.90;100.00
16194;BME280;8204;53.582;10.080;2023-01-28T00:36:31;102598.75;;;4.91;100.00
16194;BME280;8204;53.582;10.080;2023-01-28T00:39:05;102607.25;;;4.95;100.00
16194;BME280;8204;53.582;10.080;2023-01-28T00:41:34;102608.88;;;4.96;100.00
16194;BME280;8204;53.582;10.080;2023-01-28T00:44:07;102613.94;;;4.99;100.00
16194;BME280;8204;53.582;10.080;2023-01-28T00:46:36;102600.44;;;4.92;100.00
16194;BME280;8204;53.582;10.080;2023-01-28T00:49:06;102593.47;;;4.93;100.00
16194;BME280;8204;53.582;10.080;2023-01-28T00:51:36;102598.69;;;4.93;100.00
16194;BME280;8204;53.582;10.080;2023-01-28T00:54:05;102606.56;;;4.91;100.00
16194;BME280;8204;53.582;10.080;2023-01-28T00:56:34;102597.16;;;4.89;100.00
16194;BME280;8204;53.582;10.080;2023-01-28T00:59:07;102600.69;;;4.88;100.00
16194;BME280;8204;53.582;10.080;2023-01-28T01:01:37;102591.19;;;4.87;100.00
16194;BME280;8204;53.582;10.080;2023-01-28T01:04:05;102598.06;;;4.88;100.00
16194;BME280;8204;53.582;10.080;2023-01-28T01:06:36;102600.81;;;4.85;100.00
16194;BME280;8204;53.582;10.080;2023-01-28T01:09:07;102595.63;;;4.85;100.00
16194;BME280;8204;53.582;10.080;2023-01-28T01:11:36;102596.53;;;4.84;100.00
16194;BME280;8204;53.582;10.080;2023-01-28T01:14:09;102597.53;;;4.81;100.00
16194;BME280;8204;53.582;10.080;2023-01-28T01:16:39;102590.66;;;4.80;100.00
16194;BME280;8204;53.582;10.080;2023-01-28T01:19:08;102600.22;;;4.80;100.00
16194;BME280;8204;53.582;10.080;2023-01-28T01:21:37;102598.53;;;4.79;100.00
16194;BME280;8204;53.582;10.080;2023-01-28T01:24:06;102602.13;;;4.76;100.00
16194;BME280;8204;53.582;10.080;2023-01-28T01:26:36;102596.03;;;4.77;100.00
16194;BME280;8204;53.582;10.080;2023-01-28T01:29:04;102592.66;;;4.75;100.00
16194;BME280;8204;53.582;10.080;2023-01-28T01:31:37;102596.69;;;4.81;100.00
16194;BME280;8204;53.582;10.080;2023-01-28T01:34:07;102610.38;;;4.84;100.00
16194;BME280;8204;53.582;10.080;2023-01-28T01:36:37;102618.47;;;4.78;100.00
16194;BME280;8204;53.582;10.080;2023-01-28T01:39:10;102612.28;;;4.81;100.00
16194;BME280;8204;53.582;10.080;2023-01-28T01:41:39;102604.41;;;4.82;100.00
16194;BME280;8204;53.582;10.080;2023-01-28T01:47:09;102592.56;;;4.77;100.00
16194;BME280;8204;53.582;10.080;2023-01-28T01:49:38;102586.63;;;4.75;100.00
16194;BME280;8204;53.582;10.080;2023-01-28T01:52:09;102594.34;;;4.76;100.00
16194;BME280;8204;53.582;10.080;2023-01-28T01:54:43;102587.47;;;4.75;100.00
16194;BME280;8204;53.582;10.080;2023-01-28T01:57:16;102593.66;;;4.73;100.00
16194;BME280;8204;53.582;10.080;2023-01-28T01:59:48;102595.56;;;4.69;100.00
16194;BME280;8204;53.582;10.080;2023-01-28T02:02:19;102596.38;;;4.70;100.00
16194;BME280;8204;53.582;10.080;2023-01-28T02:04:49;102583.34;;;4.71;100.00
16194;BME280;8204;53.582;10.080;2023-01-28T02:07:19;102584.41;;;4.67;100.00
16194;BME280;8204;53.582;10.080;2023-01-28T02:09:48;102593.19;;;4.65;100.00
16194;BME280;8204;53.582;10.080;2023-01-28T02:12:20;102582.78;;;4.65;100.00
16194;BME280;8204;53.582;10.080;2023-01-28T02:14:53;102576.56;;;4.69;100.00
16194;BME280;8204;53.582;10.080;2023-01-28T02:17:27;102572.97;;;4.71;100.00
16194;BME280;8204;53.582;10.080;2023-01-28T02:19:58;102588.44;;;4.73;100.00
16194;BME280;8204;53.582;10.080;2023-01-28T02:22:45;102579.19;;;4.67;100.00
16194;BME280;8204;53.582;10.080;2023-01-28T02:28:31;102568.38;;;4.59;100.00
16194;BME280;8204;53.582;10.080;2023-01-28T02:31:07;102568.53;;;4.56;100.00
16194;BME280;8204;53.582;10.080;2023-01-28T02:33:40;102553.94;;;4.54;100.00
16194;BME280;8204;53.582;10.080;2023-01-28T02:36:17;102552.41;;;4.50;100.00
16194;BME280;8204;53.582;10.080;2023-01-28T02:38:49;102553.34;;;4.49;100.00
16194;BME280;8204;53.582;10.080;2023-01-28T02:41:24;102550.81;;;4.47;100.00
16194;BME280;8204;53.582;10.080;2023-01-28T02:44:00;102545.59;;;4.47;100.00
16194;BME280;8204;53.582;10.080;2023-01-28T02:46:34;102546.59;;;4.45;100.00
16194;BME280;8204;53.582;10.080;2023-01-28T02:49:19;102556.28;;;4.41;100.00
16194;BME280;8204;53.582;10.080;2023-01-28T02:52:03;102562.34;;;4.42;100.00
16194;BME280;8204;53.582;10.080;2023-01-28T02:54:40;102551.19;;;4.40;100.00
16194;BME280;8204;53.582;10.080;2023-01-28T02:57:23;102556.47;;;4.38;100.00
16194;BME280;8204;53.582;10.080;2023-01-28T03:00:05;102557.47;;;4.36;100.00
16194;BME280;8204;53.582;10.080;2023-01-28T03:02:41;102552.09;;;4.39;100.00
16194;BME280;8204;53.582;10.080;2023-01-28T03:05:18;102540.13;;;4.36;100.00
16194;BME280;8204;53.582;10.080;2023-01-28T03:07:49;102530.56;;;4.37;100.00
16194;BME280;8204;53.582;10.080;2023-01-28T03:10:20;102546.91;;;4.39;100.00
16194;BME280;8204;53.582;10.080;2023-01-28T03:12:49;102540.13;;;4.36;100.00
16194;BME280;8204;53.582;10.080;2023-01-28T03:15:38;102520.19;;;4.37;100.00
16194;BME280;8204;53.582;10.080;2023-01-28T03:18:24;102523.72;;;4.36;100.00
16194;BME280;8204;53.582;10.080;2023-01-28T03:21:08;102534.16;;;4.34;100.00
16194;BME280;8204;53.582;10.080;2023-01-28T03:23:53;102543.72;;;4.34;100.00
16194;BME280;8204;53.582;10.080;2023-01-28T03:26:41;102539.44;;;4.33;100.00
16194;BME280;8204;53.582;10.080;2023-01-28T03:29:25;102517.00;;;4.32;100.00
16194;BME280;8204;53.582;10.080;2023-01-28T03:32:13;102516.25;;;4.30;100.00
16194;BME280;8204;53.582;10.080;2023-01-28T03:34:54;102516.25;;;4.30;100.00
16194;BME280;8204;53.582;10.080;2023-01-28T03:37:36;102526.63;;;4.30;100.00
16194;BME280;8204;53.582;10.080;2023-01-28T03:40:06;102534.47;;;4.29;100.00
16194;BME280;8204;53.582;10.080;2023-01-28T03:42:36;102531.88;;;4.29;100.00
16194;BME280;8204;53.582;10.080;2023-01-28T03:45:06;102538.75;;;4.30;100.00
16194;BME280;8204;53.582;10.080;2023-01-28T03:47:38;102541.25;;;4.31;100.00
16194;BME280;8204;53.582;10.080;2023-01-28T03:50:09;102533.56;;;4.30;100.00
16194;BME280;8204;53.582;10.080;2023-01-28T03:52:38;102539.53;;;4.32;100.00
16194;BME280;8204;53.582;10.080;2023-01-28T03:55:07;102549.81;;;4.33;100.00
16194;BME280;8204;53.582;10.080;2023-01-28T03:57:40;102545.53;;;4.32;100.00
16194;BME280;8204;53.582;10.080;2023-01-28T04:00:10;102550.66;;;4.33;100.00
16194;BME280;8204;53.582;10.080;2023-01-28T04:02:44;102567.97;;;4.33;100.00
16194;BME280;8204;53.582;10.080;2023-01-28T04:05:13;102568.75;;;4.35;100.00
16194;BME280;8204;53.582;10.080;2023-01-28T04:07:44;102563.66;;;4.33;100.00
16194;BME280;8204;53.582;10.080;2023-01-28T04:10:16;102569.66;;;4.34;100.00
16194;BME280;8204;53.582;10.080;2023-01-28T04:12:45;102569.75;;;4.32;100.00
16194;BME280;8204;53.582;10.080;2023-01-28T04:15:18;102561.19;;;4.31;100.00
16194;BME280;8204;53.582;10.080;2023-01-28T04:17:51;102562.94;;;4.30;100.00
16194;BME280;8204;53.582;10.080;2023-01-28T04:20:20;102557.00;;;4.28;100.00
16194;BME280;8204;53.582;10.080;2023-01-28T04:22:49;102557.06;;;4.27;100.00
16194;BME280;8204;53.582;10.080;2023-01-28T04:25:18;102548.50;;;4.25;100.00
16194;BME280;8204;53.582;10.080;2023-01-28T04:27:48;102531.41;;;4.21;100.00
16194;BME280;8204;53.582;10.080;2023-01-28T04:30:17;102539.34;;;4.18;100.00
16194;BME280;8204;53.582;10.080;2023-01-28T04:32:46;102536.88;;;4.15;100.00
16194;BME280;8204;53.582;10.080;2023-01-28T04:35:18;102533.56;;;4.13;100.00
16194;BME280;8204;53.582;10.080;2023-01-28T04:37:46;102540.69;;;4.08;100.00
16194;BME280;8204;53.582;10.080;2023-01-28T04:40:16;102541.56;;;4.08;100.00
16194;BME280;8204;53.582;10.080;2023-01-28T04:42:52;102533.78;;;4.08;100.00
16194;BME280;8204;53.582;10.080;2023-01-28T04:45:21;102533.00;;;4.06;100.00
16194;BME280;8204;53.582;10.080;2023-01-28T04:47:50;102522.63;;;4.06;100.00
16194;BME280;8204;53.582;10.080;2023-01-28T04:50:22;102520.19;;;4.03;100.00
16194;BME280;8204;53.582;10.080;2023-01-28T04:52:50;102526.28;;;4.02;100.00
16194;BME280;8204;53.582;10.080;2023-01-28T04:55:19;102515.91;;;4.02;100.00
16194;BME280;8204;53.582;10.080;2023-01-28T04:57:48;102519.53;;;3.98;100.00
16194;BME280;8204;53.582;10.080;2023-01-28T05:00:18;102535.28;;;3.95;100.00
16194;BME280;8204;53.582;10.080;2023-01-28T05:02:47;102528.25;;;3.97;100.00
16194;BME280;8204;53.582;10.080;2023-01-28T05:05:16;102532.50;;;3.98;100.00
16194;BME280;8204;53.582;10.080;2023-01-28T05:07:52;102518.72;;;3.98;100.00
16194;BME280;8204;53.582;10.080;2023-01-28T05:10:21;102521.41;;;3.96;100.00
16194;BME280;8204;53.582;10.080;2023-01-28T05:12:51;102518.03;;;3.94;100.00
16194;BME280;8204;53.582;10.080;2023-01-28T05:15:20;102511.16;;;3.93;100.00
16194;BME280;8204;53.582;10.080;2023-01-28T05:17:53;102507.78;;;3.91;100.00
16194;BME280;8204;53.582;10.080;2023-01-28T05:20:22;102502.59;;;3.91;100.00
16194;BME280;8204;53.582;10.080;2023-01-28T05:22:54;102489.81;;;3.88;100.00
16194;BME280;8204;53.582;10.080;2023-01-28T05:25:22;102486.44;;;3.86;100.00
16194;BME280;8204;53.582;10.080;2023-01-28T05:27:52;102496.81;;;3.86;100.00
16194;BME280;8204;53.582;10.080;2023-01-28T05:30:21;102493.59;;;3.81;100.00
16194;BME280;8204;53.582;10.080;2023-01-28T05:32:54;102487.81;;;3.76;100.00
16194;BME280;8204;53.582;10.080;2023-01-28T05:35:23;102481.84;;;3.74;100.00
16194;BME280;8204;53.582;10.080;2023-01-28T05:37:54;102481.34;;;3.66;100.00
16194;BME280;8204;53.582;10.080;2023-01-28T05:40:23;102474.94;;;3.57;100.00
16194;BME280;8204;53.582;10.080;2023-01-28T05:42:52;102482.09;;;3.52;100.00
16194;BME280;8204;53.582;10.080;2023-01-28T05:45:21;102489.22;;;3.47;100.00
16194;BME280;8204;53.582;10.080;2023-01-28T05:47:50;102484.28;;;3.42;100.00
16194;BME280;8204;53.582;10.080;2023-01-28T05:50:19;102474.13;;;3.38;100.00
16194;BME280;8204;53.582;10.080;2023-01-28T05:52:48;102472.66;;;3.32;100.00
16194;BME280;8204;53.582;10.080;2023-01-28T05:55:19;102472.78;;;3.29;100.00
16194;BME280;8204;53.582;10.080;2023-01-28T05:57:48;102470.34;;;3.26;100.00
16194;BME280;8204;53.582;10.080;2023-01-28T06:00:18;102474.00;;;3.22;100.00
16194;BME280;8204;53.582;10.080;2023-01-28T06:02:46;102474.41;;;3.13;100.00
16194;BME280;8204;53.582;10.080;2023-01-28T06:05:15;102480.69;;;3.08;100.00
16194;BME280;8204;53.582;10.080;2023-01-28T06:07:44;102474.88;;;3.03;100.00
16194;BME280;8204;53.582;10.080;2023-01-28T06:10:15;102465.50;;;3.00;100.00
16194;BME280;8204;53.582;10.080;2023-01-28T06:12:47;102457.66;;;3.02;100.00
16194;BME280;8204;53.582;10.080;2023-01-28T06:15:16;102458.84;;;2.95;100.00
16194;BME280;8204;53.582;10.080;2023-01-28T06:17:45;102450.59;;;2.87;100.00
16194;BME280;8204;53.582;10.080;2023-01-28T06:20:15;102441.28;;;2.83;100.00
16194;BME280;8204;53.582;10.080;2023-01-28T06:22:44;102435.47;;;2.78;100.00
16194;BME280;8204;53.582;10.080;2023-01-28T06:25:13;102430.44;;;2.75;100.00
16194;BME280;8204;53.582;10.080;2023-01-28T06:27:42;102429.44;;;2.78;100.00
16194;BME280;8204;53.582;10.080;2023-01-28T06:30:15;102430.59;;;2.72;100.00
16194;BME280;8204;53.582;10.080;2023-01-28T06:32:44;102422.03;;;2.70;100.00
16194;BME280;8204;53.582;10.080;2023-01-28T06:35:13;102410.16;;;2.66;100.00
16194;BME280;8204;53.582;10.080;2023-01-28T06:37:44;102414.34;;;2.69;100.00
16194;BME280;8204;53.582;10.080;2023-01-28T06:40:13;102425.53;;;2.69;100.00
16194;BME280;8204;53.582;10.080;2023-01-28T06:42:42;102424.91;;;2.64;100.00
16194;BME280;8204;53.582;10.080;2023-01-28T06:45:14;102400.09;;;2.60;100.00
16194;BME280;8204;53.582;10.080;2023-01-28T06:47:43;102396.72;;;2.58;100.00
16194;BME280;8204;53.582;10.080;2023-01-28T06:50:12;102400.13;;;2.59;100.00
16194;BME280;8204;53.582;10.080;2023-01-28T06:52:40;102417.41;;;2.58;100.00
16194;BME280;8204;53.582;10.080;2023-01-28T06:55:09;102420.06;;;2.57;100.00
16194;BME280;8204;53.582;10.080;2023-01-28T06:57:38;102419.09;;;2.59;100.00
16194;BME280;8204;53.582;10.080;2023-01-28T07:00:11;102428.66;;;2.57;100.00
16194;BME280;8204;53.582;10.080;2023-01-28T07:02:43;102437.97;;;2.61;100.00
16194;BME280;8204;53.582;10.080;2023-01-28T07:05:12;102433.84;;;2.57;100.00
16194;BME280;8204;53.582;10.080;2023-01-28T07:07:40;102433.22;;;2.52;100.00
16194;BME280;8204;53.582;10.080;2023-01-28T07:10:10;102444.38;;;2.53;100.00
16194;BME280;8204;53.582;10.080;2023-01-28T07:12:39;102451.41;;;2.51;100.00
16194;BME280;8204;53.582;10.080;2023-01-28T07:15:09;102462.69;;;2.48;100.00
16194;BME280;8204;53.582;10.080;2023-01-28T07:17:40;102455.72;;;2.50;100.00
16194;BME280;8204;53.582;10.080;2023-01-28T07:20:14;102457.13;;;2.57;100.00
16194;BME280;8204;53.582;10.080;2023-01-28T07:22:43;102479.06;;;2.49;100.00
16194;BME280;8204;53.582;10.080;2023-01-28T07:25:13;102457.28;;;2.54;100.00
16194;BME280;8204;53.582;10.080;2023-01-28T07:27:46;102464.31;;;2.51;100.00
16194;BME280;8204;53.582;10.080;2023-01-28T07:30:17;102471.31;;;2.49;100.00
16194;BME280;8204;53.582;10.080;2023-01-28T07:32:48;102477.38;;;2.48;100.00
16194;BME280;8204;53.582;10.080;2023-01-28T07:35:24;102478.34;;;2.45;100.00
16194;BME280;8204;53.582;10.080;2023-01-28T07:37:53;102459.06;;;2.52;100.00
16194;BME280;8204;53.582;10.080;2023-01-28T07:40:23;102465.22;;;2.50;100.00
16194;BME280;8204;53.582;10.080;2023-01-28T07:42:52;102470.22;;;2.54;100.00
16194;BME280;8204;53.582;10.080;2023-01-28T07:45:22;102477.81;;;2.57;100.00
16194;BME280;8204;53.582;10.080;2023-01-28T07:47:55;102480.28;;;2.60;100.00
16194;BME280;8204;53.582;10.080;2023-01-28T07:50:27;102485.38;;;2.62;100.00
16194;BME280;8204;53.582;10.080;2023-01-28T07:52:57;102474.84;;;2.66;100.00
16194;BME280;8204;53.582;10.080;2023-01-28T07:55:27;102475.75;;;2.65;100.00
16194;BME280;8204;53.582;10.080;2023-01-28T07:57:57;102482.09;;;2.58;100.00
16194;BME280;8204;53.582;10.080;2023-01-28T08:00:28;102473.44;;;2.59;100.00
16194;BME280;8204;53.582;10.080;2023-01-28T08:02:59;102486.28;;;2.61;100.00
16194;BME280;8204;53.582;10.080;2023-01-28T08:05:37;102479.88;;;2.69;100.00
16194;BME280;8204;53.582;10.080;2023-01-28T08:08:08;102491.97;;;2.69;100.00
16194;BME280;8204;53.582;10.080;2023-01-28T08:10:37;102487.50;;;2.72;100.00
16194;BME280;8204;53.582;10.080;2023-01-28T08:13:08;102503.16;;;2.69;100.00
16194;BME280;8204;53.582;10.080;2023-01-28T08:15:38;102501.28;;;2.73;100.00
16194;BME280;8204;53.582;10.080;2023-01-28T08:18:08;102505.19;;;2.63;100.00
16194;BME280;8204;53.582;10.080;2023-01-28T08:20:41;102480.03;;;2.66;100.00
16194;BME280;8204;53.582;10.080;2023-01-28T08:23:14;102483.38;;;2.68;100.00
16194;BME280;8204;53.582;10.080;2023-01-28T08:25:44;102499.31;;;2.59;100.00
16194;BME280;8204;53.582;10.080;2023-01-28T08:28:14;102481.72;;;2.67;100.00
16194;BME280;8204;53.582;10.080;2023-01-28T08:30:44;102478.00;;;2.73;100.00
16194;BME280;8204;53.582;10.080;2023-01-28T08:33:14;102488.34;;;2.73;100.00
16194;BME280;8204;53.582;10.080;2023-01-28T08:35:46;102502.84;;;2.77;100.00
16194;BME280;8204;53.582;10.080;2023-01-28T08:38:14;102508.06;;;2.75;100.00
16194;BME280;8204;53.582;10.080;2023-01-28T08:40:45;102505.38;;;2.78;100.00
16194;BME280;8204;53.582;10.080;2023-01-28T08:43:15;102499.00;;;2.85;100.00
16194;BME280;8204;53.582;10.080;2023-01-28T08:45:44;102517.13;;;2.85;100.00
16194;BME280;8204;53.582;10.080;2023-01-28T08:48:14;102519.56;;;2.88;100.00
16194;BME280;8204;53.582;10.080;2023-01-28T08:50:46;102523.53;;;2.96;100.00
16194;BME280;8204;53.582;10.080;2023-01-28T08:53:17;102537.50;;;2.92;100.00
16194;BME280;8204;53.582;10.080;2023-01-28T08:55:46;102558.28;;;2.91;100.00
16194;BME280;8204;53.582;10.080;2023-01-28T08:58:16;102566.03;;;2.91;100.00
16194;BME280;8204;53.582;10.080;2023-01-28T09:00:46;102566.69;;;2.96;100.00
16194;BME280;8204;53.582;10.080;2023-01-28T09:03:15;102579.63;;;2.96;100.00
16194;BME280;8204;53.582;10.080;2023-01-28T09:05:47;102587.53;;;2.93;100.00
16194;BME280;8204;53.582;10.080;2023-01-28T09:08:16;102584.94;;;2.93;100.00
16194;BME280;8204;53.582;10.080;2023-01-28T09:10:45;102581.44;;;2.94;100.00
16194;BME280;8204;53.582;10.080;2023-01-28T09:13:14;102589.34;;;2.91;100.00
16194;BME280;8204;53.582;10.080;2023-01-28T09:15:43;102600.59;;;2.90;100.00
16194;BME280;8204;53.582;10.080;2023-01-28T09:18:12;102612.66;;;2.91;100.00
16194;BME280;8204;53.582;10.080;2023-01-28T09:20:41;102621.84;;;2.98;100.00
16194;BME280;8204;53.582;10.080;2023-01-28T09:23:12;102626.88;;;3.01;100.00
16194;BME280;8204;53.582;10.080;2023-01-28T09:25:41;102624.00;;;3.07;100.00
16194;BME280;8204;53.582;10.080;2023-01-28T09:28:10;102625.44;;;3.14;100.00
16194;BME280;8204;53.582;10.080;2023-01-28T09:30:39;102640.06;;;3.15;100.00
16194;BME280;8204;53.582;10.080;2023-01-28T09:33:07;102632.22;;;3.16;100.00
16194;BME280;8204;53.582;10.080;2023-01-28T09:35:36;102636.94;;;3.27;100.00
16194;BME280;8204;53.582;10.080;2023-01-28T09:38:05;102656.97;;;3.23;100.00
16194;BME280;8204;53.582;10.080;2023-01-28T09:40:40;102669.72;;;3.28;100.00
16194;BME280;8204;53.582;10.080;2023-01-28T09:43:23;102668.03;;;3.27;100.00
16194;BME280;8204;53.582;10.080;2023-01-28T09:45:57;102672.13;;;3.32;100.00
16194;BME280;8204;53.582;10.080;2023-01-28T09:48:29;102666.66;;;3.38;100.00
16194;BME280;8204;53.582;10.080;2023-01-28T09:51:07;102671.59;;;3.44;100.00
16194;BME280;8204;53.582;10.080;2023-01-28T09:53:40;102675.66;;;3.50;100.00
16194;BME280;8204;53.582;10.080;2023-01-28T09:56:18;102671.13;;;3.55;100.00
16194;BME280;8204;53.582;10.080;2023-01-28T09:58:50;102658.66;;;3.62;100.00
16194;BME280;8204;53.582;10.080;2023-01-28T10:01:35;102659.28;;;3.67;100.00
16194;BME280;8204;53.582;10.080;2023-01-28T10:04:17;102666.03;;;3.71;100.00
16194;BME280;8204;53.582;10.080;2023-01-28T10:06:58;102660.84;;;3.71;100.00
16194;BME280;8204;53.582;10.080;2023-01-28T10:09:36;102652.66;;;3.80;100.00
16194;BME280;8204;53.582;10.080;2023-01-28T10:12:25;102653.44;;;3.82;100.00
16194;BME280;8204;53.582;10.080;2023-01-28T10:15:09;102667.19;;;3.84;100.00
16194;BME280;8204;53.582;10.080;2023-01-28T10:17:47;102663.38;;;3.91;100.00
16194;BME280;8204;53.582;10.080;2023-01-28T10:20:20;102646.78;;;3.95;100.00
16194;BME280;8204;53.582;10.080;2023-01-28T10:22:56;102650.97;;;3.98;100.00
16194;BME280;8204;53.582;10.080;2023-01-28T10:25:29;102653.28;;;4.04;100.00
16194;BME280;8204;53.582;10.080;2023-01-28T10:28:01;102649.28;;;4.15;100.00
16194;BME280;8204;53.582;10.080;2023-01-28T10:30:31;102657.91;;;4.16;100.00
16194;BME280;8204;53.582;10.080;2023-01-28T10:33:04;102652.50;;;4.20;100.00
16194;BME280;8204;53.582;10.080;2023-01-28T10:35:38;102645.97;;;4.30;100.00
16194;BME280;8204;53.582;10.080;2023-01-28T10:38:12;102649.19;;;4.35;100.00
16194;BME280;8204;53.582;10.080;2023-01-28T10:40:42;102639.41;;;4.40;100.00
16194;BME280;8204;53.582;10.080;2023-01-28T10:43:18;102630.66;;;4.42;100.00
16194;BME280;8204;53.582;10.080;2023-01-28T10:45:54;102648.31;;;4.53;100.00
16194;BME280;8204;53.582;10.080;2023-01-28T10:48:28;102637.78;;;4.56;100.00
16194;BME280;8204;53.582;10.080;2023-01-28T10:50:59;102633.88;;;4.64;100.00
16194;BME280;8204;53.582;10.080;2023-01-28T10:53:34;102627.09;;;4.62;100.00
16194;BME280;8204;53.582;10.080;2023-01-28T10:56:06;102624.25;;;4.66;100.00
16194;BME280;8204;53.582;10.080;2023-01-28T10:58:47;102618.22;;;4.66;100.00
16194;BME280;8204;53.582;10.080;2023-01-28T11:01:18;102613.03;;;4.66;100.00
16194;BME280;8204;53.582;10.080;2023-01-28T11:03:54;102601.13;;;4.62;100.00
16194;BME280;8204;53.582;10.080;2023-01-28T11:06:25;102587.25;;;4.63;100.00
16194;BME280;8204;53.582;10.080;2023-01-28T11:08:54;102606.16;;;4.65;100.00
16194;BME280;8204;53.582;10.080;2023-01-28T11:11:25;102592.72;;;4.74;100.00
16194;BME280;8204;53.582;10.080;2023-01-28T11:13:57;102594.56;;;4.72;100.00
16194;BME280;8204;53.582;10.080;2023-01-28T11:16:26;102605.72;;;4.74;100.00
16194;BME280;8204;53.582;10.080;2023-01-28T11:18:59;102596.09;;;4.76;100.00
16194;BME280;8204;53.582;10.080;2023-01-28T11:21:30;102597.94;;;4.74;100.00
16194;BME280;8204;53.582;10.080;2023-01-28T11:24:02;102577.63;;;4.82;100.00
16194;BME280;8204;53.582;10.080;2023-01-28T11:26:35;102577.44;;;4.85;100.00
16194;BME280;8204;53.582;10.080;2023-01-28T11:29:21;102574.38;;;4.94;100.00
16194;BME280;8204;53.582;10.080;2023-01-28T11:31:51;102556.81;;;4.99;100.00
16194;BME280;8204;53.582;10.080;2023-01-28T11:34:25;102543.03;;;5.13;100.00
16194;BME280;8204;53.582;10.080;2023-01-28T11:37:01;102544.53;;;5.17;100.00
16194;BME280;8204;53.582;10.080;2023-01-28T11:39:31;102563.16;;;5.25;100.00
16194;BME280;8204;53.582;10.080;2023-01-28T11:42:10;102570.53;;;5.33;100.00
16194;BME280;8204;53.582;10.080;2023-01-28T11:44:42;102562.94;;;5.30;100.00
16194;BME280;8204;53.582;10.080;2023-01-28T11:47:28;102547.09;;;5.34;100.00
16194;BME280;8204;53.582;10.080;2023-01-28T11:50:23;102557.78;;;5.28;100.00
16194;BME280;8204;53.582;10.080;2023-01-28T11:53:15;102554.94;;;5.33;100.00
16194;BME280;8204;53.582;10.080;2023-01-28T11:55:59;102550.28;;;5.39;100.00
16194;BME280;8204;53.582;10.080;2023-01-28T11:58:37;102542.91;;;5.47;100.00
16194;BME280;8204;53.582;10.080;2023-01-28T12:01:20;102541.47;;;5.57;100.00
16194;BME280;8204;53.582;10.080;2023-01-28T12:04:17;102548.94;;;5.63;100.00
16194;BME280;8204;53.582;10.080;2023-01-28T12:06:57;102550.63;;;5.64;100.00
16194;BME280;8204;53.582;10.080;2023-01-28T12:09:35;102561.53;;;5.71;100.00
16194;BME280;8204;53.582;10.080;2023-01-28T12:12:25;102557.88;;;5.90;100.00
16194;BME280;8204;53.582;10.080;2023-01-28T12:15:19;102554.13;;;5.80;100.00
16194;BME280;8204;53.582;10.080;2023-01-28T12:18:02;102553.56;;;5.74;100.00
16194;BME280;8204;53.582;10.080;2023-01-28T12:20:41;102560.88;;;5.67;100.00
16194;BME280;8204;53.582;10.080;2023-01-28T12:23:23;102543.84;;;5.62;100.00
16194;BME280;8204;53.582;10.080;2023-01-28T12:26:05;102526.13;;;5.68;100.00
16194;BME280;8204;53.582;10.080;2023-01-28T12:28:47;102535.47;;;5.72;100.00
16194;BME280;8204;53.582;10.080;2023-01-28T12:31:45;102536.56;;;5.83;100.00
16194;BME280;8204;53.582;10.080;2023-01-28T12:34:34;102526.50;;;5.93;100.00
16194;BME280;8204;53.582;10.080;2023-01-28T12:37:14;102536.06;;;5.92;100.00
16194;BME280;8204;53.582;10.080;2023-01-28T12:39:58;102540.44;;;5.92;100.00
16194;BME280;8204;53.582;10.080;2023-01-28T12:42:35;102528.84;;;5.82;100.00
16194;BME280;8204;53.582;10.080;2023-01-28T12:45:14;102522.81;;;5.81;100.00
16194;BME280;8204;53.582;10.080;2023-01-28T12:47:49;102523.81;;;5.94;100.00
16194;BME280;8204;53.582;10.080;2023-01-28T12:50:27;102510.91;;;5.93;100.00
16194;BME280;8204;53.582;10.080;2023-01-28T12:52:59;102501.97;;;5.97;100.00
16194;BME280;8204;53.582;10.080;2023-01-28T12:55:37;102483.31;;;6.04;100.00
16194;BME280;8204;53.582;10.080;2023-01-28T12:58:14;102490.78;;;6.10;100.00
16194;BME280;8204;53.582;10.080;2023-01-28T13:00:47;102482.66;;;6.01;100.00
16194;BME280;8204;53.582;10.080;2023-01-28T13:03:20;102476.78;;;5.97;100.00
16194;BME280;8204;53.582;10.080;2023-01-28T13:05:58;102481.84;;;6.00;100.00
16194;BME280;8204;53.582;10.080;2023-01-28T13:08:29;102473.94;;;6.02;100.00
16194;BME280;8204;53.582;10.080;2023-01-28T13:11:01;102472.44;;;5.98;100.00
16194;BME280;8204;53.582;10.080;2023-01-28T13:13:32;102475.97;;;5.97;100.00
16194;BME280;8204;53.582;10.080;2023-01-28T13:16:03;102485.03;;;5.90;100.00
16194;BME280;8204;53.582;10.080;2023-01-28T13:18:42;102483.72;;;5.83;100.00
16194;BME280;8204;53.582;10.080;2023-01-28T13:21:16;102469.13;;;5.80;100.00
16194;BME280;8204;53.582;10.080;2023-01-28T13:24:04;102462.53;;;5.89;100.00
16194;BME280;8204;53.582;10.080;2023-01-28T13:26:41;102464.53;;;5.99;100.00